Overview Statistics Trail Chart Weather Telemetry Raw packets
 

This is the latest recevied weather packets stored in our database for station/object NO9B. If no packets are shown the sender has not sent any weather packets the latest 10 day(s).

<< 29 30 31 32 33 34 35 >>
Time Temp. Humidity Pressure Rain* Wind** Luminosity Snow
1788461794 25.56° C 91% 1014.9 hPa 0 mm - 98 W/m² -
1788461489 26.11° C 91% 1015 hPa 0 mm - 97 W/m² -
1788461186 25.56° C 91% 1015 hPa 0 mm - 140 W/m² -
1788460882 25.56° C 93% 1014.9 hPa 0 mm - 149 W/m² -
1788460580 25° C 94% 1014.9 hPa 0 mm - 292 W/m² -
1788460275 25° C 98% 1015.1 hPa 0 mm - 259 W/m² -
1788459974 25° C 98% 1015 hPa 0 mm - 280 W/m² -
1788459670 23.89° C 98% 1015.1 hPa 0 mm - 592 W/m² -
1788459390 23.89° C 97% 1015.2 hPa 0 mm - 97 W/m² -
1788459069 23.89° C 97% 1015.8 hPa 0 mm - 54 W/m² -
1788458764 23.89° C 97% 1015.7 hPa 0.51 mm - 37 W/m² -
1788458459 23.89° C 97% 1015.4 hPa 0 mm - 33 W/m² -
1788458158 23.33° C 97% 1015.4 hPa 0.51 mm - 43 W/m² -
1788457858 23.33° C 97% 1015.4 hPa 0.51 mm - 46 W/m² -
1788457552 23.33° C 97% 1015 hPa 0 mm - 81 W/m² -
1788457247 23.33° C 97% 1014.8 hPa 5.33 mm - 69 W/m² -
1788456942 23.33° C 97% 1015.2 hPa 18.03 mm - 34 W/m² -
1788456639 23.33° C 97% 1016 hPa 9.65 mm - 21 W/m² -
1788456338 23.33° C 98% 1015 hPa 0 mm - 27 W/m² -
1788456034 23.33° C 98% 1014.9 hPa 0 mm - 95 W/m² -
1788455729 22.78° C 97% 1014.8 hPa 10.16 mm - 126 W/m² -
1788455425 22.78° C 97% 1015.6 hPa 11.43 mm - 45 W/m² -
1788455123 22.78° C 97% 1016.1 hPa 1.27 mm - 18 W/m² -
1788454819 22.78° C 97% 1016.4 hPa 1.27 mm - 37 W/m² -
1788454517 22.78° C 97% 1016.8 hPa 0.51 mm - 36 W/m² -

* Rain latest hour (hover to see other rain measurements)
** Current wind speed in m/s (hover to see current wind gust speed)